createdAt,value
2018-10-03T00:01:19.029Z,1.40
2018-10-03T00:03:47.465Z,1.70
2018-10-03T00:06:15.352Z,1.70
2018-10-03T00:08:43.199Z,1.70
2018-10-03T00:11:11.028Z,1.80
2018-10-03T00:13:38.874Z,1.60
2018-10-03T00:16:06.995Z,1.53
2018-10-03T00:18:34.823Z,2.20
2018-10-03T00:21:02.690Z,1.60
2018-10-03T00:23:30.596Z,1.97
2018-10-03T00:25:58.379Z,1.87
2018-10-03T00:28:26.273Z,1.40
2018-10-03T00:30:54.189Z,1.87
2018-10-03T00:33:22.036Z,2.03
2018-10-03T00:35:49.907Z,1.43
2018-10-03T00:38:17.765Z,2.10
2018-10-03T00:40:45.628Z,1.73
2018-10-03T00:43:13.470Z,2.10
2018-10-03T00:45:41.343Z,1.80
2018-10-03T00:48:09.735Z,2.27
2018-10-03T00:50:37.966Z,1.90
2018-10-03T00:53:05.834Z,2.03
2018-10-03T00:55:33.676Z,2.90
2018-10-03T00:58:01.549Z,2.13
2018-10-03T01:00:30.101Z,1.93
2018-10-03T01:02:58.010Z,1.73
2018-10-03T01:05:25.882Z,1.80
2018-10-03T01:07:53.735Z,2.00
2018-10-03T01:10:21.582Z,2.07
2018-10-03T01:12:49.426Z,2.30
2018-10-03T01:15:17.343Z,2.30
2018-10-03T01:17:45.180Z,2.03
2018-10-03T01:20:13.043Z,2.97
2018-10-03T01:22:40.915Z,2.70
2018-10-03T01:25:08.771Z,2.07
2018-10-03T01:27:36.639Z,2.17
2018-10-03T01:30:04.672Z,1.90
2018-10-03T01:32:32.535Z,1.50
2018-10-03T01:35:00.386Z,1.70
2018-10-03T01:37:28.296Z,1.83
2018-10-03T01:39:56.147Z,1.70
2018-10-03T01:42:23.988Z,3.17
2018-10-03T01:44:51.848Z,1.57
2018-10-03T01:47:19.683Z,1.60
2018-10-03T01:49:47.551Z,2.00
2018-10-03T01:52:15.428Z,2.13
2018-10-03T01:54:43.355Z,1.93
2018-10-03T01:57:11.283Z,1.40
2018-10-03T01:59:39.114Z,1.80
2018-10-03T02:02:07.082Z,1.53
2018-10-03T02:04:35.409Z,1.63
2018-10-03T02:07:03.387Z,1.70
2018-10-03T02:09:31.254Z,1.40
2018-10-03T02:11:59.119Z,2.10
2018-10-03T02:14:26.955Z,1.50
2018-10-03T02:16:54.796Z,1.70
2018-10-03T02:19:22.653Z,1.67
2018-10-03T02:21:50.538Z,1.90
2018-10-03T02:24:18.496Z,1.40
2018-10-03T02:26:46.378Z,1.20
2018-10-03T02:29:14.339Z,2.00
2018-10-03T02:31:42.204Z,1.50
2018-10-03T02:34:16.356Z,1.63
2018-10-03T02:36:44.694Z,1.90
2018-10-03T02:39:12.560Z,1.70
2018-10-03T02:41:40.435Z,1.50
2018-10-03T02:44:08.287Z,1.43
2018-10-03T02:46:36.129Z,1.40
2018-10-03T02:49:04.163Z,1.57
2018-10-03T02:51:32.555Z,1.60
2018-10-03T02:54:00.407Z,1.67
2018-10-03T02:56:28.242Z,1.50
2018-10-03T02:58:56.716Z,1.23
2018-10-03T03:01:25.171Z,2.03
2018-10-03T03:03:53.798Z,1.97
2018-10-03T03:06:22.032Z,1.40
2018-10-03T03:08:50.819Z,1.77
2018-10-03T03:11:19.152Z,1.57
2018-10-03T03:13:47.747Z,1.60
2018-10-03T03:16:16.359Z,1.47
2018-10-03T03:18:45.271Z,1.90
2018-10-03T03:21:13.636Z,1.50
2018-10-03T03:23:42.091Z,1.70
2018-10-03T03:26:10.492Z,1.70
2018-10-03T03:28:38.954Z,1.97
2018-10-03T03:31:07.615Z,1.83
2018-10-03T03:33:36.318Z,1.53
2018-10-03T03:36:04.695Z,1.87
2018-10-03T03:38:33.330Z,1.90
2018-10-03T03:41:01.825Z,1.90
2018-10-03T03:43:30.402Z,1.87
2018-10-03T03:45:59.024Z,1.43
2018-10-03T03:48:27.487Z,1.80
2018-10-03T03:50:56.118Z,1.80
2018-10-03T03:53:24.741Z,1.43
2018-10-03T03:55:53.390Z,1.57
2018-10-03T03:58:22.061Z,1.80
2018-10-03T04:00:50.654Z,1.70
2018-10-03T04:03:19.056Z,1.40
2018-10-03T04:05:47.333Z,1.30
2018-10-03T04:08:15.747Z,1.50
2018-10-03T04:10:44.201Z,1.57
2018-10-03T04:13:12.741Z,1.37
2018-10-03T04:15:41.291Z,1.50
2018-10-03T04:18:09.927Z,1.20
2018-10-03T04:20:38.340Z,1.67
2018-10-03T04:23:06.596Z,1.30
2018-10-03T04:25:35.063Z,1.63
2018-10-03T04:28:03.506Z,1.77
2018-10-03T04:30:32.112Z,1.60
2018-10-03T04:33:00.336Z,2.13
2018-10-03T04:35:28.600Z,1.57
2018-10-03T04:37:57.053Z,1.43
2018-10-03T04:40:25.794Z,1.47
2018-10-03T04:42:54.331Z,1.03
2018-10-03T04:45:23.284Z,1.60
2018-10-03T04:47:51.794Z,1.70
2018-10-03T04:50:20.449Z,1.83
2018-10-03T04:52:49.075Z,1.17
2018-10-03T04:55:17.523Z,1.40
2018-10-03T04:57:45.983Z,1.57
2018-10-03T05:00:14.620Z,1.70
2018-10-03T05:02:43.227Z,2.30
2018-10-03T05:05:11.858Z,1.77
2018-10-03T05:07:40.507Z,2.60
2018-10-03T05:10:09.163Z,1.73
2018-10-03T05:12:37.823Z,1.60
2018-10-03T05:15:06.407Z,1.37
2018-10-03T05:17:35.942Z,1.60
2018-10-03T05:20:04.482Z,1.60
2018-10-03T05:22:32.868Z,1.43
2018-10-03T05:25:01.328Z,1.90
2018-10-03T05:27:29.788Z,1.70
2018-10-03T05:29:58.224Z,1.63
2018-10-03T05:32:26.662Z,1.50
2018-10-03T05:34:55.107Z,3.33
2018-10-03T05:37:23.661Z,1.80
2018-10-03T05:39:51.980Z,2.13
2018-10-03T05:42:20.630Z,1.40
2018-10-03T05:44:49.040Z,1.77
2018-10-03T05:47:17.419Z,1.93
2018-10-03T05:49:46.090Z,2.67
2018-10-03T05:52:14.566Z,2.20
2018-10-03T05:54:43.049Z,1.90
2018-10-03T05:57:11.583Z,1.97
2018-10-03T05:59:40.087Z,1.20
2018-10-03T06:02:08.734Z,1.73
2018-10-03T06:04:37.371Z,1.90
2018-10-03T06:07:05.608Z,1.53
2018-10-03T06:09:34.624Z,2.10
2018-10-03T06:12:03.122Z,4.23
2018-10-03T06:14:31.716Z,2.17
2018-10-03T06:17:00.332Z,1.80
2018-10-03T06:19:28.808Z,2.00
2018-10-03T06:21:57.970Z,2.47
2018-10-03T06:24:26.459Z,1.83
2018-10-03T06:26:55.101Z,2.30
2018-10-03T06:29:23.714Z,1.77
2018-10-03T06:31:52.153Z,1.97
2018-10-03T06:34:20.635Z,1.93
2018-10-03T06:36:49.011Z,2.23
2018-10-03T06:39:17.293Z,1.97
2018-10-03T06:41:45.960Z,2.30
2018-10-03T06:44:14.564Z,2.10
2018-10-03T06:46:42.958Z,2.70
2018-10-03T06:49:11.207Z,2.30
2018-10-03T06:51:39.457Z,2.50
2018-10-03T06:54:07.779Z,2.30
2018-10-03T06:56:35.617Z,2.57
2018-10-03T06:59:03.566Z,2.30
2018-10-03T07:01:32.063Z,2.00
2018-10-03T07:04:00.524Z,2.17
2018-10-03T07:06:28.351Z,2.53
2018-10-03T07:08:56.281Z,2.50
2018-10-03T07:11:24.847Z,4.60
2018-10-03T07:13:53.259Z,7.73
2018-10-03T07:16:21.109Z,5.37
2018-10-03T07:18:49.580Z,3.70
2018-10-03T07:21:17.993Z,2.90
2018-10-03T07:23:46.440Z,3.23
2018-10-03T07:26:14.791Z,2.90
2018-10-03T07:28:43.319Z,3.37
2018-10-03T07:31:12.175Z,6.07
2018-10-03T07:33:40.581Z,5.10
2018-10-03T07:36:09.085Z,6.67
2018-10-03T07:38:37.387Z,2.80
2018-10-03T07:41:06.106Z,2.60
2018-10-03T07:43:34.563Z,2.27
2018-10-03T07:46:02.780Z,2.67
2018-10-03T07:48:30.871Z,2.50
2018-10-03T07:50:59.495Z,3.10
2018-10-03T07:53:27.954Z,2.50
2018-10-03T07:55:56.542Z,2.40
2018-10-03T07:58:25.059Z,2.33
2018-10-03T08:00:53.410Z,3.00
2018-10-03T08:03:21.886Z,2.50
2018-10-03T08:05:50.305Z,2.63
2018-10-03T08:08:18.768Z,2.73
2018-10-03T08:10:47.395Z,2.83
2018-10-03T08:13:15.648Z,2.67
2018-10-03T08:15:44.061Z,10.70
2018-10-03T08:18:12.308Z,6.57
2018-10-03T08:20:41.980Z,5.57
2018-10-03T08:23:10.397Z,9.77
2018-10-03T08:25:39.022Z,5.63
2018-10-03T08:28:07.470Z,6.00
2018-10-03T08:30:36.159Z,4.90
2018-10-03T08:33:04.748Z,4.43
2018-10-03T08:35:32.572Z,3.70
2018-10-03T08:38:01.024Z,3.13
2018-10-03T08:40:29.431Z,3.87
2018-10-03T08:42:57.693Z,3.00
2018-10-03T08:45:25.930Z,2.60
2018-10-03T08:47:54.390Z,2.47
2018-10-03T08:50:22.616Z,2.17
2018-10-03T08:52:50.841Z,1.90
2018-10-03T08:55:19.407Z,2.43
2018-10-03T08:57:47.961Z,2.57
2018-10-03T09:00:16.370Z,2.37
2018-10-03T09:02:45.069Z,2.50
2018-10-03T09:05:14.051Z,4.13
2018-10-03T09:07:42.539Z,2.67
2018-10-03T09:10:11.225Z,2.63
2018-10-03T09:12:39.543Z,2.70
2018-10-03T09:15:08.056Z,2.40
2018-10-03T09:17:36.654Z,3.40
2018-10-03T09:20:05.306Z,2.53
2018-10-03T09:22:33.960Z,2.63
2018-10-03T09:25:02.343Z,2.77
2018-10-03T09:27:30.572Z,2.23
2018-10-03T09:29:59.233Z,2.70
2018-10-03T09:32:27.683Z,2.70
2018-10-03T09:34:56.708Z,2.70
2018-10-03T09:37:25.352Z,2.27
2018-10-03T09:39:53.986Z,2.80
2018-10-03T09:42:22.628Z,3.13
2018-10-03T09:44:51.071Z,2.97
2018-10-03T09:47:19.705Z,2.90
2018-10-03T09:49:48.182Z,2.73
2018-10-03T09:52:16.798Z,2.57
2018-10-03T09:54:45.429Z,3.23
2018-10-03T09:57:14.063Z,2.50
2018-10-03T09:59:42.634Z,2.67
2018-10-03T10:02:10.896Z,3.07
2018-10-03T10:04:39.380Z,3.03
2018-10-03T10:07:08.155Z,2.80
2018-10-03T10:09:36.419Z,4.20
2018-10-03T10:12:04.894Z,7.23
2018-10-03T10:14:33.536Z,4.13
2018-10-03T10:17:01.952Z,5.10
2018-10-03T10:19:30.191Z,9.73
2018-10-03T10:21:58.768Z,7.43
2018-10-03T10:24:27.283Z,5.63
2018-10-03T10:26:55.924Z,6.77
2018-10-03T10:29:24.323Z,3.93
2018-10-03T10:31:52.831Z,3.37
2018-10-03T10:34:21.435Z,3.40
2018-10-03T10:36:50.137Z,3.53
2018-10-03T10:39:18.830Z,3.53
2018-10-03T10:41:47.355Z,3.20
2018-10-03T10:44:15.976Z,3.30
2018-10-03T10:46:44.462Z,3.10
2018-10-03T10:49:13.194Z,2.83
2018-10-03T10:51:41.537Z,3.23
2018-10-03T10:54:09.938Z,3.00
2018-10-03T10:56:38.575Z,3.30
2018-10-03T10:59:06.942Z,3.30
2018-10-03T11:01:35.228Z,3.30
2018-10-03T11:04:03.731Z,2.80
2018-10-03T11:06:32.374Z,3.47
2018-10-03T11:09:00.988Z,3.00
2018-10-03T11:11:30.139Z,3.17
2018-10-03T11:13:58.695Z,2.73
2018-10-03T11:16:27.427Z,4.23
2018-10-03T11:18:56.250Z,3.67
2018-10-03T11:21:24.528Z,3.07
2018-10-03T11:23:53.806Z,2.70
2018-10-03T11:26:22.496Z,3.50
2018-10-03T11:28:51.009Z,3.60
2018-10-03T11:31:19.450Z,3.40
2018-10-03T11:33:47.956Z,3.63
2018-10-03T11:36:16.590Z,2.80
2018-10-03T11:38:45.182Z,2.53
2018-10-03T11:41:13.818Z,3.27
2018-10-03T11:43:42.386Z,3.20
2018-10-03T11:46:10.907Z,2.60
2018-10-03T11:48:39.356Z,3.17
2018-10-03T11:51:07.605Z,2.67
2018-10-03T11:53:36.251Z,2.83
2018-10-03T11:56:04.875Z,3.20
2018-10-03T11:58:33.498Z,3.50
2018-10-03T12:01:01.432Z,3.67
2018-10-03T12:03:30.012Z,2.40
2018-10-03T12:05:58.624Z,3.27
2018-10-03T12:08:27.048Z,3.20
2018-10-03T12:10:55.515Z,3.30
2018-10-03T12:13:24.173Z,3.53
2018-10-03T12:15:53.026Z,3.53
2018-10-03T12:18:21.379Z,3.37
2018-10-03T12:20:49.924Z,3.20
2018-10-03T12:23:18.504Z,3.20
2018-10-03T12:25:47.161Z,4.03
2018-10-03T12:28:15.787Z,3.53
2018-10-03T12:30:44.417Z,3.50
2018-10-03T12:33:13.024Z,3.07
2018-10-03T12:35:41.688Z,4.03
2018-10-03T12:38:10.343Z,3.30
2018-10-03T12:40:38.727Z,3.23
2018-10-03T12:43:07.199Z,4.60
2018-10-03T12:45:35.837Z,3.93
2018-10-03T12:48:04.130Z,3.50
2018-10-03T12:50:32.728Z,4.33
2018-10-03T12:53:01.360Z,3.50
2018-10-03T12:55:29.989Z,3.53
2018-10-03T12:57:58.660Z,3.20
2018-10-03T13:00:32.714Z,3.40
2018-10-03T13:03:02.108Z,3.20
2018-10-03T13:05:30.386Z,3.50
2018-10-03T13:07:59.509Z,2.93
2018-10-03T13:10:28.078Z,2.90
2018-10-03T13:12:56.540Z,3.07
2018-10-03T13:15:25.169Z,3.10
2018-10-03T13:17:53.837Z,2.90
2018-10-03T13:20:22.343Z,2.87
2018-10-03T13:22:51.075Z,2.43
2018-10-03T13:25:19.753Z,3.07
2018-10-03T13:27:48.149Z,2.30
2018-10-03T13:30:16.619Z,2.73
2018-10-03T13:32:45.288Z,2.33
2018-10-03T13:35:13.695Z,1.80
2018-10-03T13:37:42.312Z,1.50
2018-10-03T13:40:10.979Z,1.70
2018-10-03T13:42:39.646Z,2.33
2018-10-03T13:45:07.978Z,1.90
2018-10-03T13:47:36.287Z,2.20
2018-10-03T13:50:04.916Z,1.87
2018-10-03T13:52:33.666Z,1.93
2018-10-03T13:55:02.199Z,1.47
2018-10-03T13:57:30.632Z,2.40
2018-10-03T13:59:59.266Z,1.70
2018-10-03T14:02:27.887Z,1.80
2018-10-03T14:04:56.520Z,1.63
2018-10-03T14:07:25.010Z,1.23
2018-10-03T14:09:53.554Z,1.30
2018-10-03T14:12:21.834Z,1.63
2018-10-03T14:14:50.047Z,1.63
2018-10-03T14:17:18.518Z,1.50
2018-10-03T14:19:46.755Z,1.27
2018-10-03T14:22:16.218Z,1.77
2018-10-03T14:24:44.903Z,1.40
2018-10-03T14:27:13.487Z,1.70
2018-10-03T14:29:42.215Z,1.40
2018-10-03T14:32:10.735Z,1.43
2018-10-03T14:34:39.168Z,2.20
2018-10-03T14:37:07.429Z,1.50
2018-10-03T14:39:36.053Z,2.10
2018-10-03T14:42:04.733Z,1.90
2018-10-03T14:44:33.335Z,2.00
2018-10-03T14:47:01.834Z,1.57
2018-10-03T14:49:30.431Z,1.77
2018-10-03T14:51:58.910Z,1.90
2018-10-03T14:54:27.479Z,2.50
2018-10-03T14:56:55.964Z,1.77
2018-10-03T14:59:24.367Z,1.60
2018-10-03T15:01:52.995Z,1.60
2018-10-03T15:04:21.473Z,1.97
2018-10-03T15:06:50.079Z,1.37
2018-10-03T15:09:18.721Z,1.90
2018-10-03T15:11:47.345Z,1.70
2018-10-03T15:14:15.587Z,1.57
2018-10-03T15:16:44.235Z,1.50
2018-10-03T15:19:12.667Z,1.60
2018-10-03T15:21:41.137Z,1.67
2018-10-03T15:24:09.974Z,1.40
2018-10-03T15:26:38.590Z,1.40
2018-10-03T15:29:07.114Z,1.50
2018-10-03T15:31:35.646Z,1.47
2018-10-03T15:34:03.872Z,1.30
2018-10-03T15:36:32.443Z,1.30
2018-10-03T15:39:00.963Z,1.27
2018-10-03T15:41:30.320Z,1.20
2018-10-03T15:43:58.826Z,1.40
2018-10-03T15:46:27.284Z,1.40
2018-10-03T15:48:55.915Z,1.50
2018-10-03T15:51:24.581Z,1.20
2018-10-03T15:53:53.183Z,1.40
2018-10-03T15:56:21.843Z,1.20
2018-10-03T15:58:50.517Z,1.63
2018-10-03T16:01:19.125Z,1.70
2018-10-03T16:03:47.719Z,1.37
2018-10-03T16:06:16.201Z,1.90
2018-10-03T16:08:44.814Z,1.90
2018-10-03T16:11:13.448Z,1.40
2018-10-03T16:13:42.112Z,1.50
2018-10-03T16:16:10.750Z,1.40
2018-10-03T16:18:39.372Z,1.67
2018-10-03T16:21:07.999Z,1.30
2018-10-03T16:23:36.832Z,1.40
2018-10-03T16:26:05.405Z,1.57
2018-10-03T16:28:33.875Z,1.40
2018-10-03T16:31:02.183Z,1.40
2018-10-03T16:33:30.843Z,1.77
2018-10-03T16:35:59.541Z,1.67
2018-10-03T16:38:28.070Z,1.77
2018-10-03T16:40:56.715Z,1.53
2018-10-03T16:43:25.147Z,1.63
2018-10-03T16:45:53.564Z,2.07
2018-10-03T16:48:22.212Z,1.83
2018-10-03T16:50:50.644Z,1.83
2018-10-03T16:53:19.292Z,1.73
2018-10-03T16:55:47.714Z,1.80
2018-10-03T16:58:16.364Z,2.20
2018-10-03T17:00:45.023Z,2.10
2018-10-03T17:03:13.514Z,1.70
2018-10-03T17:05:42.379Z,2.00
2018-10-03T17:08:10.898Z,1.97
2018-10-03T17:10:39.346Z,2.00
2018-10-03T17:13:07.796Z,1.80
2018-10-03T17:15:36.515Z,1.60
2018-10-03T17:18:05.043Z,2.23
2018-10-03T17:20:33.503Z,2.10
2018-10-03T17:23:02.104Z,1.90
2018-10-03T17:25:30.602Z,2.00
2018-10-03T17:27:59.200Z,1.70
2018-10-03T17:30:27.832Z,2.23
2018-10-03T17:32:56.260Z,1.70
2018-10-03T17:35:24.718Z,2.10
2018-10-03T17:37:53.223Z,1.63
2018-10-03T17:40:21.793Z,1.90
2018-10-03T17:42:50.304Z,2.30
2018-10-03T17:45:18.138Z,2.50
2018-10-03T17:47:45.987Z,2.00
2018-10-03T17:50:13.815Z,2.50
2018-10-03T17:52:41.629Z,2.20
2018-10-03T17:55:09.465Z,2.57
2018-10-03T17:57:37.719Z,2.50
2018-10-03T18:00:05.907Z,2.40
2018-10-03T18:02:33.728Z,2.90
2018-10-03T18:05:02.382Z,5.50
2018-10-03T18:07:30.903Z,3.27
2018-10-03T18:09:59.584Z,3.37
2018-10-03T18:12:27.940Z,2.43
2018-10-03T18:14:56.370Z,2.03
2018-10-03T18:17:24.859Z,2.70
2018-10-03T18:19:53.487Z,2.70
2018-10-03T18:22:22.131Z,2.40
2018-10-03T18:24:50.566Z,2.03
2018-10-03T18:27:19.044Z,2.33
2018-10-03T18:29:47.469Z,2.10
2018-10-03T18:32:15.445Z,2.13
2018-10-03T18:34:43.952Z,2.73
2018-10-03T18:37:12.062Z,2.40
2018-10-03T18:39:40.648Z,2.67
2018-10-03T18:42:09.304Z,2.80
2018-10-03T18:44:48.118Z,2.50
2018-10-03T18:47:15.997Z,2.60
2018-10-03T18:49:44.437Z,2.20
2018-10-03T18:52:13.115Z,2.63
2018-10-03T18:54:41.346Z,2.80
2018-10-03T18:57:10.077Z,3.00
2018-10-03T18:59:38.805Z,2.50
2018-10-03T19:02:07.194Z,2.30
2018-10-03T19:04:35.611Z,2.77
2018-10-03T19:07:04.695Z,2.30
2018-10-03T19:09:33.618Z,2.77
2018-10-03T19:12:02.250Z,2.73
2018-10-03T19:14:30.498Z,2.23
2018-10-03T19:16:59.410Z,2.40
2018-10-03T19:19:27.968Z,2.50
2018-10-03T19:21:56.588Z,2.67
2018-10-03T19:24:25.349Z,2.40
2018-10-03T19:26:54.026Z,3.13
2018-10-03T19:29:23.085Z,2.57
2018-10-03T19:31:50.997Z,2.77
2018-10-03T19:34:19.399Z,2.30
2018-10-03T19:36:47.838Z,2.73
2018-10-03T19:39:15.741Z,2.90
2018-10-03T19:41:44.460Z,2.67
2018-10-03T19:44:13.219Z,2.63
2018-10-03T19:46:42.180Z,2.60
2018-10-03T19:49:11.142Z,2.80
2018-10-03T19:51:39.933Z,2.63
2018-10-03T19:54:08.662Z,2.40
2018-10-03T19:56:37.639Z,3.13
2018-10-03T19:59:06.130Z,2.97
2018-10-03T20:01:34.728Z,2.50
2018-10-03T20:04:03.908Z,3.33
2018-10-03T20:06:32.854Z,2.90
2018-10-03T20:09:02.015Z,2.87
2018-10-03T20:11:30.487Z,2.70
2018-10-03T20:13:59.017Z,2.70
2018-10-03T20:16:27.364Z,2.50
2018-10-03T20:18:56.094Z,2.67
2018-10-03T20:21:24.495Z,2.70
2018-10-03T20:23:53.085Z,3.00
2018-10-03T20:26:21.733Z,2.77
2018-10-03T20:28:49.563Z,2.70
2018-10-03T20:31:17.403Z,2.90
2018-10-03T20:33:45.879Z,3.00
2018-10-03T20:36:13.709Z,2.57
2018-10-03T20:38:41.544Z,2.77
2018-10-03T20:41:09.364Z,2.93
2018-10-03T20:43:37.323Z,2.80
2018-10-03T20:46:05.899Z,2.50
2018-10-03T20:48:34.523Z,2.77
2018-10-03T20:51:03.224Z,2.63
2018-10-03T20:53:31.799Z,2.60
2018-10-03T20:55:59.644Z,2.40
2018-10-03T20:58:28.093Z,2.70
2018-10-03T21:00:56.733Z,2.30
2018-10-03T21:03:24.560Z,2.53
2018-10-03T21:05:52.395Z,2.57
2018-10-03T21:08:20.206Z,2.50
2018-10-03T21:10:48.038Z,2.40
2018-10-03T21:13:15.920Z,2.40
2018-10-03T21:15:43.759Z,2.73
2018-10-03T21:18:11.579Z,2.17
2018-10-03T21:20:40.115Z,2.23
2018-10-03T21:23:08.802Z,2.33
2018-10-03T21:25:37.157Z,2.60
2018-10-03T21:28:05.660Z,2.60
2018-10-03T21:30:33.511Z,2.60
2018-10-03T21:33:01.332Z,2.50
2018-10-03T21:35:29.969Z,2.30
2018-10-03T21:37:57.788Z,2.30
2018-10-03T21:40:26.253Z,3.03
2018-10-03T21:42:54.074Z,2.43
2018-10-03T21:45:21.894Z,2.30
2018-10-03T21:47:49.728Z,2.47
2018-10-03T21:50:18.260Z,3.13
2018-10-03T21:52:46.131Z,2.63
2018-10-03T21:55:14.107Z,2.57
2018-10-03T21:57:41.937Z,2.47
2018-10-03T22:00:10.098Z,2.80
2018-10-03T22:02:38.371Z,2.40
2018-10-03T22:05:08.516Z,2.60
2018-10-03T22:07:37.227Z,2.70
2018-10-03T22:10:05.868Z,2.40
2018-10-03T22:12:34.402Z,2.37
2018-10-03T22:15:02.239Z,2.00
2018-10-03T22:17:34.235Z,2.17
2018-10-03T22:20:02.084Z,2.30
2018-10-03T22:22:30.780Z,2.13
2018-10-03T22:24:59.362Z,2.03
2018-10-03T22:27:27.262Z,1.80
2018-10-03T22:29:55.646Z,2.07
2018-10-03T22:32:24.293Z,1.93
2018-10-03T22:34:52.724Z,1.77
2018-10-03T22:37:21.369Z,1.50
2018-10-03T22:39:49.278Z,2.00
2018-10-03T22:42:17.136Z,2.10
2018-10-03T22:44:45.714Z,2.07
2018-10-03T22:47:14.126Z,2.10
2018-10-03T22:49:41.953Z,2.20
2018-10-03T22:52:10.418Z,1.60
2018-10-03T22:54:38.874Z,2.20
2018-10-03T22:57:06.705Z,2.17
2018-10-03T22:59:34.736Z,2.37
2018-10-03T23:02:03.106Z,2.30
2018-10-03T23:04:31.451Z,2.80
2018-10-03T23:07:00.080Z,2.00
2018-10-03T23:09:28.517Z,2.20
2018-10-03T23:11:56.984Z,1.90
2018-10-03T23:14:24.934Z,2.10
2018-10-03T23:16:53.440Z,2.30
2018-10-03T23:19:21.882Z,2.27
2018-10-03T23:21:50.326Z,2.27
2018-10-03T23:24:19.743Z,2.60
2018-10-03T23:26:48.203Z,2.30
2018-10-03T23:29:16.835Z,2.47
2018-10-03T23:31:44.703Z,3.20
2018-10-03T23:34:13.311Z,2.70
2018-10-03T23:36:41.958Z,2.60
2018-10-03T23:39:12.084Z,2.30
2018-10-03T23:41:40.685Z,2.07
2018-10-03T23:44:09.310Z,2.67
2018-10-03T23:46:37.871Z,1.97
2018-10-03T23:49:06.105Z,2.20
2018-10-03T23:51:34.643Z,1.90
2018-10-03T23:54:03.196Z,1.87
2018-10-03T23:56:31.640Z,2.20
2018-10-03T23:59:00.048Z,2.20
